Time;durP1;ratioP1;P1;durP2;ratioP2;P2;SDS_P1;SDS_P2;PMS_P1;PMS_P2;Temp;Humidity;BMP_temperature;BMP_pressure;BME280_temperature;BME280_humidity;BME280_pressure;Samples;Min_cycle;Max_cycle;Signal;HPM_P1;HPM_P2
2024/02/04 00:00:35;;;;;;;7.45;3.88;;;8.10;99.90;;;;;;5005608;28;20034;-84
2024/02/04 00:03:00;;;;;;;7.45;3.75;;;8.10;99.90;;;;;;4996793;28;20039;-86
2024/02/04 00:05:26;;;;;;;4.72;3.20;;;8.10;99.90;;;;;;4990217;28;20054;-80
2024/02/04 00:07:52;;;;;;;5.72;3.53;;;8.10;99.90;;;;;;4984230;28;20066;-82
2024/02/04 00:10:18;;;;;;;5.53;3.72;;;8.00;99.90;;;;;;5025349;28;20046;-78
2024/02/04 00:12:44;;;;;;;5.40;3.40;;;8.00;99.90;;;;;;4992236;28;20077;-86
2024/02/04 00:15:10;;;;;;;5.60;3.47;;;8.00;99.90;;;;;;4991061;28;20340;-82
2024/02/04 00:17:36;;;;;;;4.90;2.92;;;8.10;99.90;;;;;;4992742;28;20029;-87
2024/02/04 00:20:03;;;;;;;5.95;3.00;;;8.10;99.90;;;;;;4981611;28;20015;-79
2024/02/04 00:22:29;;;;;;;3.92;2.80;;;8.00;99.90;;;;;;4993196;28;20025;-82
2024/02/04 00:24:56;;;;;;;4.50;2.78;;;8.00;99.90;;;;;;4991637;28;20034;-81
2024/02/04 00:27:21;;;;;;;5.20;2.97;;;8.10;99.90;;;;;;4989025;28;20027;-80
2024/02/04 00:29:47;;;;;;;3.80;2.60;;;8.10;99.90;;;;;;4977164;28;20018;-82
2024/02/04 00:32:12;;;;;;;3.88;2.58;;;8.10;99.90;;;;;;4991118;28;20359;-81
2024/02/04 00:34:38;;;;;;;4.97;2.92;;;8.10;99.90;;;;;;4992747;28;20444;-83
2024/02/04 00:37:04;;;;;;;3.97;2.50;;;8.10;99.90;;;;;;4994895;28;20082;-82
2024/02/04 00:39:29;;;;;;;4.78;2.85;;;8.10;99.90;;;;;;4980542;28;20014;-84
2024/02/04 00:41:55;;;;;;;3.90;2.53;;;8.10;99.90;;;;;;4995323;28;20023;-84
2024/02/04 00:44:20;;;;;;;3.65;2.28;;;8.10;99.90;;;;;;4987111;28;20045;-78
2024/02/04 00:46:46;;;;;;;4.00;2.67;;;8.10;99.90;;;;;;4994666;28;20053;-71
2024/02/04 00:49:12;;;;;;;3.15;2.10;;;8.40;99.90;;;;;;4990028;28;20034;-71
2024/02/04 00:51:37;;;;;;;3.72;2.60;;;9.00;99.90;;;;;;4993927;28;20069;-83
2024/02/04 00:54:03;;;;;;;5.03;2.47;;;8.70;99.90;;;;;;4995648;28;20022;-88
2024/02/04 00:56:28;;;;;;;3.33;2.20;;;8.50;99.90;;;;;;4982302;28;20061;-86
2024/02/04 00:58:54;;;;;;;5.35;2.80;;;8.30;99.90;;;;;;4995209;28;20116;-89
2024/02/04 01:01:20;;;;;;;4.50;2.50;;;8.20;99.90;;;;;;4996531;28;20030;-87
2024/02/04 01:03:45;;;;;;;4.20;1.95;;;8.20;99.90;;;;;;4994965;28;20422;-85
2024/02/04 01:06:11;;;;;;;4.97;2.50;;;8.20;99.90;;;;;;4992851;28;20417;-81
2024/02/04 01:08:37;;;;;;;3.72;2.30;;;8.10;99.90;;;;;;4995009;28;20464;-82
2024/02/04 01:11:04;;;;;;;3.15;2.20;;;8.10;99.90;;;;;;4992692;28;20137;-82
2024/02/04 01:13:30;;;;;;;3.00;2.33;;;8.10;99.90;;;;;;4979526;28;20018;-84
2024/02/04 01:15:56;;;;;;;4.03;2.42;;;8.10;99.90;;;;;;4979108;28;20080;-85
2024/02/04 01:18:21;;;;;;;3.75;2.42;;;8.00;99.90;;;;;;4979662;28;20046;-86
2024/02/04 01:20:47;;;;;;;2.92;2.22;;;8.00;99.90;;;;;;4982410;28;20085;-83
2024/02/04 01:23:13;;;;;;;4.38;2.47;;;8.00;99.90;;;;;;4994727;28;20017;-81
2024/02/04 01:25:39;;;;;;;3.00;2.10;;;8.00;99.90;;;;;;4979005;28;20583;-81
2024/02/04 01:28:04;;;;;;;4.18;2.42;;;8.00;99.90;;;;;;4978875;28;20026;-81
2024/02/04 01:30:31;;;;;;;3.70;2.28;;;8.00;99.90;;;;;;4994278;28;20479;-81
2024/02/04 01:32:56;;;;;;;4.75;2.22;;;8.00;99.90;;;;;;4987912;28;20042;-81
2024/02/04 01:35:22;;;;;;;3.50;2.35;;;8.00;99.90;;;;;;4996194;28;20085;-81
2024/02/04 01:37:48;;;;;;;3.92;2.50;;;8.00;99.90;;;;;;4995131;28;20089;-81
2024/02/04 01:40:14;;;;;;;3.15;1.90;;;8.00;99.90;;;;;;4995234;28;20022;-84
2024/02/04 01:42:40;;;;;;;3.40;2.17;;;8.00;99.90;;;;;;4994553;28;20349;-84
2024/02/04 01:45:07;;;;;;;3.33;2.00;;;8.00;99.90;;;;;;4995025;28;20053;-84
2024/02/04 01:47:33;;;;;;;2.08;1.70;;;8.00;99.90;;;;;;4994850;28;20023;-84
2024/02/04 01:49:59;;;;;;;4.78;2.08;;;8.00;99.90;;;;;;4993873;28;20175;-84
2024/02/04 01:52:25;;;;;;;2.95;2.10;;;8.00;99.90;;;;;;4994781;28;20517;-84
2024/02/04 01:54:52;;;;;;;3.42;1.88;;;8.00;99.90;;;;;;4994792;28;20042;-85
2024/02/04 01:57:18;;;;;;;5.65;2.17;;;8.00;99.90;;;;;;4995269;28;20039;-85
2024/02/04 01:59:44;;;;;;;3.25;2.38;;;8.00;99.90;;;;;;4995498;28;20022;-85
2024/02/04 02:02:10;;;;;;;2.95;2.20;;;8.00;99.90;;;;;;4995035;28;20514;-86
2024/02/04 02:04:35;;;;;;;3.10;1.85;;;8.00;99.90;;;;;;4994337;28;20046;-85
2024/02/04 02:07:02;;;;;;;3.25;2.13;;;7.90;99.90;;;;;;4994159;28;20038;-86
2024/02/04 02:09:29;;;;;;;2.92;1.85;;;7.90;99.90;;;;;;4994625;28;20344;-86
2024/02/04 02:12:03;;;;;;;3.92;2.20;;;7.90;99.90;;;;;;4994115;28;20026;-86
2024/02/04 02:14:33;;;;;;;3.30;1.95;;;7.90;99.90;;;;;;4994505;28;20026;-86
2024/02/04 02:17:20;;;;;;;2.60;2.08;;;7.90;99.90;;;;;;4994252;28;20057;-85
2024/02/04 02:20:12;;;;;;;3.17;2.35;;;7.80;99.90;;;;;;4995219;28;20022;-84
2024/02/04 02:23:00;;;;;;;3.97;2.25;;;7.80;99.90;;;;;;4995606;28;20452;-84
2024/02/04 02:25:27;;;;;;;3.92;2.20;;;7.80;99.90;;;;;;4994303;28;20030;-83
2024/02/04 02:27:53;;;;;;;3.80;2.30;;;7.80;99.90;;;;;;4993754;28;20121;-83
2024/02/04 02:30:19;;;;;;;2.80;1.73;;;7.80;99.90;;;;;;4993976;28;20062;-83
2024/02/04 02:32:46;;;;;;;4.95;2.30;;;7.80;99.90;;;;;;4994684;28;20023;-83
2024/02/04 02:35:19;;;;;;;2.70;1.95;;;7.80;99.90;;;;;;4993437;28;20022;-84
2024/02/04 02:37:50;;;;;;;4.00;2.40;;;7.80;99.90;;;;;;4993096;28;20034;-84
2024/02/04 02:40:20;;;;;;;4.07;2.00;;;7.80;99.90;;;;;;4993890;28;20045;-82
2024/02/04 02:42:47;;;;;;;4.32;1.92;;;7.70;99.90;;;;;;4993747;28;20092;-83
2024/02/04 02:45:14;;;;;;;4.10;2.17;;;7.80;99.90;;;;;;4993942;28;20045;-83
2024/02/04 02:47:40;;;;;;;3.90;1.98;;;7.80;99.90;;;;;;4994981;28;20073;-83
2024/02/04 02:50:07;;;;;;;3.28;1.90;;;7.70;99.90;;;;;;4993098;28;20025;-84
2024/02/04 02:52:33;;;;;;;2.92;2.22;;;7.70;99.90;;;;;;4993461;28;20363;-83
2024/02/04 02:54:58;;;;;;;4.40;1.90;;;7.70;99.90;;;;;;4994285;28;20022;-83
2024/02/04 02:57:24;;;;;;;2.22;1.67;;;7.70;99.90;;;;;;4993961;28;20022;-83
2024/02/04 02:59:50;;;;;;;4.90;2.67;;;7.70;99.90;;;;;;4993132;28;20022;-83
2024/02/04 03:02:16;;;;;;;3.40;2.08;;;7.70;99.90;;;;;;4993824;28;20026;-83
2024/02/04 03:04:41;;;;;;;4.57;2.50;;;7.70;99.90;;;;;;4993331;28;20360;-82
2024/02/04 03:07:07;;;;;;;2.47;1.60;;;7.70;99.90;;;;;;4993673;28;20034;-82
2024/02/04 03:09:33;;;;;;;3.88;2.30;;;7.70;99.90;;;;;;4996635;28;20448;-82
2024/02/04 03:11:59;;;;;;;2.75;1.92;;;7.70;99.90;;;;;;4996577;28;20379;-84
2024/02/04 03:14:25;;;;;;;4.32;2.40;;;7.70;99.90;;;;;;4996917;28;20013;-84
2024/02/04 03:16:50;;;;;;;3.88;2.47;;;7.70;99.90;;;;;;5013791;28;20026;-82
2024/02/04 03:19:16;;;;;;;3.92;2.50;;;7.60;99.90;;;;;;4997042;28;20455;-83
2024/02/04 03:21:41;;;;;;;4.10;2.03;;;7.60;99.90;;;;;;5014279;28;20026;-83
2024/02/04 03:24:07;;;;;;;3.28;2.13;;;7.60;99.90;;;;;;5013711;28;20081;-83
2024/02/04 03:26:32;;;;;;;3.05;2.10;;;7.60;99.90;;;;;;4996778;28;20030;-83
2024/02/04 03:28:58;;;;;;;3.58;2.33;;;7.60;99.90;;;;;;4996410;28;20025;-83
2024/02/04 03:31:24;;;;;;;4.70;2.00;;;7.50;99.90;;;;;;4997095;28;20018;-83
2024/02/04 03:33:50;;;;;;;3.63;2.28;;;7.60;99.90;;;;;;4996322;28;20030;-82
2024/02/04 03:36:20;;;;;;;4.43;2.45;;;7.60;99.90;;;;;;4996049;28;20521;-84
2024/02/04 03:38:45;;;;;;;4.25;1.70;;;7.50;99.90;;;;;;4996498;28;20462;-83
2024/02/04 03:41:11;;;;;;;3.50;2.08;;;7.50;99.90;;;;;;4996595;28;20068;-84
2024/02/04 03:43:37;;;;;;;4.13;2.15;;;7.50;99.90;;;;;;4996657;28;20018;-83
2024/02/04 03:46:03;;;;;;;2.55;1.60;;;7.50;99.90;;;;;;4996181;28;20121;-84
2024/02/04 03:48:28;;;;;;;2.50;1.90;;;7.40;99.90;;;;;;4996716;28;20120;-84
2024/02/04 03:50:54;;;;;;;3.45;1.88;;;7.40;99.90;;;;;;4996440;28;20031;-82
2024/02/04 03:53:22;;;;;;;3.00;2.17;;;7.40;99.90;;;;;;4996854;28;20022;-83
2024/02/04 03:55:48;;;;;;;4.07;2.42;;;7.40;99.90;;;;;;4979261;28;20027;-83
2024/02/04 03:58:14;;;;;;;4.45;2.00;;;7.40;99.90;;;;;;4973818;28;20027;-83
2024/02/04 04:00:39;;;;;;;3.60;2.00;;;7.40;99.90;;;;;;4976683;28;20026;-83
2024/02/04 04:03:05;;;;;;;3.13;1.73;;;7.40;99.90;;;;;;4976759;28;20061;-84
2024/02/04 04:05:31;;;;;;;4.20;2.00;;;7.40;99.90;;;;;;4976343;28;20043;-83
2024/02/04 04:07:56;;;;;;;3.20;2.20;;;7.30;99.90;;;;;;4976653;28;20073;-84
2024/02/04 04:10:22;;;;;;;2.30;1.60;;;7.30;99.90;;;;;;4994110;28;20462;-84
2024/02/04 04:12:47;;;;;;;2.72;1.95;;;7.30;99.90;;;;;;4978773;28;20018;-82
2024/02/04 04:15:13;;;;;;;3.70;2.13;;;7.30;99.90;;;;;;4997831;28;20415;-83
2024/02/04 04:17:38;;;;;;;2.95;2.03;;;7.30;99.90;;;;;;4980741;28;20121;-81
2024/02/04 04:20:06;;;;;;;3.70;1.67;;;7.30;99.90;;;;;;4980216;28;20026;-84
2024/02/04 04:22:32;;;;;;;3.67;2.03;;;7.30;99.90;;;;;;4980026;28;20026;-84
2024/02/04 04:24:57;;;;;;;2.65;1.83;;;7.40;99.90;;;;;;4997179;28;20029;-86
2024/02/04 04:27:23;;;;;;;3.05;1.95;;;7.40;99.90;;;;;;4980681;28;20030;-86
2024/02/04 04:29:49;;;;;;;3.03;2.10;;;7.40;99.90;;;;;;4997196;28;20022;-84
2024/02/04 04:32:14;;;;;;;2.88;2.08;;;7.40;99.90;;;;;;4980345;28;20407;-83
2024/02/04 04:34:40;;;;;;;3.22;2.33;;;7.40;99.90;;;;;;4979716;28;20026;-83
2024/02/04 04:37:06;;;;;;;3.30;2.50;;;7.40;99.90;;;;;;4979708;28;20030;-83
2024/02/04 04:39:32;;;;;;;4.72;2.72;;;7.30;99.90;;;;;;4980213;28;20022;-82
2024/02/04 04:41:57;;;;;;;3.70;2.50;;;7.30;99.90;;;;;;4979634;28;20367;-83
2024/02/04 04:44:23;;;;;;;2.83;2.00;;;7.30;99.90;;;;;;4980189;28;20030;-83
2024/02/04 04:46:49;;;;;;;3.88;2.35;;;7.30;99.90;;;;;;4979812;28;20037;-83
2024/02/04 04:49:15;;;;;;;4.20;2.38;;;7.30;99.90;;;;;;4997355;28;20337;-83
2024/02/04 04:51:46;;;;;;;3.65;2.13;;;7.30;99.90;;;;;;4997170;28;20076;-82
2024/02/04 04:54:11;;;;;;;3.55;2.25;;;7.30;99.90;;;;;;4996747;28;20158;-82
2024/02/04 04:56:40;;;;;;;4.28;2.55;;;7.30;99.90;;;;;;4979790;28;20077;-82
2024/02/04 04:59:07;;;;;;;3.38;2.28;;;7.30;99.90;;;;;;4979331;28;20053;-83
2024/02/04 05:01:33;;;;;;;3.67;2.22;;;7.30;99.90;;;;;;4979617;28;20026;-83
2024/02/04 05:03:58;;;;;;;3.92;2.53;;;7.30;99.90;;;;;;4978871;28;20030;-83
2024/02/04 05:06:24;;;;;;;4.55;2.10;;;7.30;99.90;;;;;;4979670;28;20061;-83
2024/02/04 05:08:50;;;;;;;2.55;1.90;;;7.30;99.90;;;;;;4996811;28;20481;-83
2024/02/04 05:11:15;;;;;;;3.30;2.08;;;7.30;99.90;;;;;;4979255;28;20027;-82
2024/02/04 05:13:41;;;;;;;3.15;2.15;;;7.30;99.90;;;;;;4996780;28;20030;-83
2024/02/04 05:16:06;;;;;;;3.47;2.25;;;7.30;99.90;;;;;;4979118;28;20026;-82
2024/02/04 05:18:32;;;;;;;4.05;2.00;;;7.30;99.90;;;;;;4979568;28;20022;-82
2024/02/04 05:20:58;;;;;;;4.53;1.98;;;7.30;99.90;;;;;;4978978;28;20172;-83
2024/02/04 05:23:23;;;;;;;3.50;2.17;;;7.30;99.90;;;;;;4977866;28;20026;-83
2024/02/04 05:25:49;;;;;;;2.90;2.00;;;7.30;99.90;;;;;;4996543;28;20045;-83
2024/02/04 05:28:14;;;;;;;3.15;2.00;;;7.30;99.90;;;;;;4995994;28;20041;-82
2024/02/04 05:30:40;;;;;;;2.40;1.80;;;7.30;99.90;;;;;;4979384;28;20455;-82
2024/02/04 05:33:06;;;;;;;3.30;2.08;;;7.30;99.90;;;;;;4995857;28;20045;-84
2024/02/04 05:35:31;;;;;;;2.72;1.83;;;7.30;99.90;;;;;;4978717;28;20034;-84
2024/02/04 05:37:57;;;;;;;2.35;1.80;;;7.30;99.90;;;;;;4978934;28;20033;-85
2024/02/04 05:40:22;;;;;;;2.72;1.80;;;7.30;99.90;;;;;;4979228;28;20167;-81
2024/02/04 05:42:48;;;;;;;2.63;1.83;;;7.30;99.90;;;;;;4996063;28;20495;-81
2024/02/04 05:45:14;;;;;;;2.58;1.60;;;7.20;99.90;;;;;;4978572;28;20022;-84
2024/02/04 05:47:39;;;;;;;2.95;1.85;;;7.30;99.90;;;;;;4979064;28;20022;-83
2024/02/04 05:50:06;;;;;;;2.55;2.00;;;7.30;99.90;;;;;;4978678;28;20022;-84
2024/02/04 05:52:31;;;;;;;2.22;1.80;;;7.30;99.90;;;;;;4979063;28;20037;-83
2024/02/04 05:54:57;;;;;;;4.00;2.35;;;7.30;99.90;;;;;;4978307;28;20022;-83
2024/02/04 05:57:25;;;;;;;2.40;1.65;;;7.30;99.90;;;;;;4978577;28;20026;-82
2024/02/04 05:59:52;;;;;;;5.40;1.93;;;7.30;99.90;;;;;;4978603;28;20113;-82
2024/02/04 06:02:18;;;;;;;3.75;1.60;;;7.30;99.90;;;;;;4978156;28;20053;-82
2024/02/04 06:04:43;;;;;;;3.03;1.90;;;7.30;99.90;;;;;;4975282;28;20070;-81
2024/02/04 06:07:09;;;;;;;2.97;2.10;;;7.30;99.90;;;;;;4974624;28;20035;-82
2024/02/04 06:09:35;;;;;;;1.90;1.45;;;7.30;99.90;;;;;;4978522;28;20014;-82
2024/02/04 06:12:01;;;;;;;2.20;1.75;;;7.30;99.90;;;;;;4995479;28;20029;-82
2024/02/04 06:14:27;;;;;;;3.40;1.80;;;7.30;99.90;;;;;;4995618;28;20048;-82
2024/02/04 06:16:52;;;;;;;3.72;1.73;;;7.30;99.90;;;;;;4995274;28;20065;-82
2024/02/04 06:19:18;;;;;;;2.17;1.55;;;7.30;99.90;;;;;;4977903;28;20375;-81
2024/02/04 06:21:43;;;;;;;4.15;1.63;;;7.30;99.90;;;;;;4978296;28;20053;-82
2024/02/04 06:24:09;;;;;;;2.17;1.25;;;7.30;99.90;;;;;;4994868;28;20081;-82
2024/02/04 06:26:38;;;;;;;2.17;1.45;;;7.40;99.90;;;;;;4978369;28;20471;-82
2024/02/04 06:29:03;;;;;;;2.08;1.70;;;7.30;99.90;;;;;;4977857;28;20065;-83
2024/02/04 06:31:29;;;;;;;2.05;1.60;;;7.30;99.90;;;;;;4978386;28;20030;-82
2024/02/04 06:33:54;;;;;;;1.75;1.50;;;7.40;99.90;;;;;;4977981;28;20027;-82
2024/02/04 06:36:20;;;;;;;1.80;1.40;;;7.30;99.90;;;;;;4994801;28;20038;-82
2024/02/04 06:38:45;;;;;;;2.63;1.55;;;7.40;99.90;;;;;;4978207;28;20124;-82
2024/02/04 06:41:11;;;;;;;3.42;1.85;;;7.30;99.90;;;;;;4994726;28;20030;-82
2024/02/04 06:43:38;;;;;;;2.45;1.90;;;7.30;99.90;;;;;;4977965;28;20022;-83
2024/02/04 06:46:03;;;;;;;2.08;1.30;;;7.30;99.90;;;;;;4994622;28;20037;-83
2024/02/04 06:48:29;;;;;;;2.78;1.63;;;7.30;99.90;;;;;;4995087;28;20378;-83
2024/02/04 06:50:54;;;;;;;2.17;1.35;;;7.30;99.90;;;;;;4995246;28;20014;-84
2024/02/04 06:53:20;;;;;;;2.97;1.45;;;7.30;99.90;;;;;;4994664;28;20022;-84
2024/02/04 06:55:46;;;;;;;2.92;1.60;;;7.30;99.90;;;;;;4995133;28;20113;-83
2024/02/04 06:58:11;;;;;;;2.10;1.48;;;7.30;99.90;;;;;;4977483;28;20432;-83
2024/02/04 07:00:37;;;;;;;2.10;1.40;;;7.30;99.90;;;;;;4977778;28;20095;-84
2024/02/04 07:03:02;;;;;;;2.40;1.80;;;7.30;99.90;;;;;;4973948;28;20027;-83
2024/02/04 07:05:28;;;;;;;2.80;1.63;;;7.30;99.90;;;;;;4963855;28;20057;-83
2024/02/04 07:07:53;;;;;;;3.08;1.55;;;7.30;99.90;;;;;;4977635;28;20120;-83
2024/02/04 07:10:19;;;;;;;1.58;1.30;;;7.30;99.90;;;;;;4977267;28;20022;-81
2024/02/04 07:12:45;;;;;;;2.35;1.73;;;7.30;99.90;;;;;;4988798;28;20045;-83
2024/02/04 07:15:10;;;;;;;2.25;1.35;;;7.30;99.90;;;;;;4957867;28;20086;-85
2024/02/04 07:17:36;;;;;;;1.92;1.23;;;7.30;99.90;;;;;;4958536;28;20432;-86
2024/02/04 07:20:02;;;;;;;1.52;1.20;;;7.30;99.90;;;;;;4958120;28;20420;-85
2024/02/04 07:22:28;;;;;;;1.97;1.10;;;7.30;99.90;;;;;;4975608;28;20027;-85
2024/02/04 07:24:54;;;;;;;1.73;1.20;;;7.40;99.90;;;;;;4975661;28;20074;-86
2024/02/04 07:27:20;;;;;;;2.53;1.03;;;7.40;99.90;;;;;;4974906;28;20058;-87
2024/02/04 07:29:47;;;;;;;1.58;1.13;;;7.40;99.90;;;;;;4958073;28;20026;-86
2024/02/04 07:32:12;;;;;;;1.13;1.02;;;7.40;99.90;;;;;;4965980;28;20460;-86
2024/02/04 07:34:38;;;;;;;1.33;1.00;;;7.40;99.90;;;;;;4977470;28;20023;-86
2024/02/04 07:37:04;;;;;;;2.05;1.25;;;7.40;99.90;;;;;;4994031;28;20463;-86
2024/02/04 07:39:30;;;;;;;1.33;0.90;;;7.40;99.90;;;;;;4977184;28;20050;-87
2024/02/04 07:41:59;;;;;;;1.27;0.97;;;7.40;99.90;;;;;;4994645;28;20033;-86
2024/02/04 07:44:28;;;;;;;1.40;1.00;;;7.40;99.90;;;;;;4994515;28;20025;-87
2024/02/04 07:46:54;;;;;;;2.05;0.82;;;7.40;99.90;;;;;;4978916;28;20034;-83
2024/02/04 07:49:20;;;;;;;2.25;1.10;;;7.40;99.90;;;;;;4981047;28;20220;-82
2024/02/04 07:51:45;;;;;;;1.10;0.80;;;7.40;99.90;;;;;;4981445;28;20022;-82
2024/02/04 07:54:11;;;;;;;0.80;0.65;;;7.40;99.90;;;;;;4997871;28;20026;-83
2024/02/04 07:56:36;;;;;;;1.27;0.80;;;7.40;99.90;;;;;;4981125;28;20468;-83
2024/02/04 07:59:03;;;;;;;1.95;1.00;;;7.40;99.90;;;;;;4980508;28;20033;-83
2024/02/04 08:01:29;;;;;;;1.38;0.90;;;7.40;99.90;;;;;;4981337;28;20027;-82
2024/02/04 08:03:55;;;;;;;1.85;0.70;;;7.40;99.90;;;;;;4980888;28;20030;-82
2024/02/04 08:06:20;;;;;;;1.00;0.90;;;7.40;99.90;;;;;;4980389;28;20208;-83
2024/02/04 08:08:47;;;;;;;1.77;0.90;;;7.40;99.90;;;;;;4981119;28;20072;-82
2024/02/04 08:11:17;;;;;;;0.80;0.70;;;7.50;99.90;;;;;;4997568;28;20056;-83
2024/02/04 08:13:42;;;;;;;0.70;0.70;;;7.40;99.90;;;;;;4980923;28;20033;-82
2024/02/04 08:16:08;;;;;;;0.90;0.80;;;7.50;99.90;;;;;;4980067;28;20026;-81
2024/02/04 08:18:33;;;;;;;1.63;0.98;;;7.50;99.90;;;;;;4980541;28;20022;-81
2024/02/04 08:20:59;;;;;;;1.88;0.70;;;7.40;99.90;;;;;;4980474;28;20026;-80
2024/02/04 08:23:24;;;;;;;2.08;0.75;;;7.50;99.90;;;;;;4997388;28;20023;-81
2024/02/04 08:25:50;;;;;;;1.42;0.88;;;7.50;99.90;;;;;;4980381;28;20061;-83
2024/02/04 08:28:15;;;;;;;1.08;0.70;;;7.50;99.90;;;;;;4980227;28;20444;-82
2024/02/04 08:30:41;;;;;;;1.35;0.80;;;7.50;99.90;;;;;;4980608;28;20018;-83
2024/02/04 08:33:07;;;;;;;1.67;0.80;;;7.50;99.90;;;;;;4980201;28;20026;-81
2024/02/04 08:35:32;;;;;;;0.80;0.80;;;7.50;99.90;;;;;;4997587;28;20034;-82
2024/02/04 08:37:58;;;;;;;1.58;0.90;;;7.50;99.90;;;;;;4980592;28;20096;-83
2024/02/04 08:40:24;;;;;;;0.65;0.60;;;7.40;99.90;;;;;;4979788;28;20518;-85
2024/02/04 08:42:49;;;;;;;0.90;0.75;;;7.50;99.90;;;;;;4973687;28;20026;-84
2024/02/04 08:45:15;;;;;;;1.45;0.80;;;7.40;99.90;;;;;;4970756;28;20026;-84
2024/02/04 08:47:40;;;;;;;0.70;0.68;;;7.50;99.90;;;;;;4969193;28;20081;-86
2024/02/04 08:50:07;;;;;;;0.82;0.70;;;7.50;99.90;;;;;;4969448;28;20023;-84
2024/02/04 08:52:32;;;;;;;0.60;0.50;;;7.50;99.90;;;;;;4987290;28;20034;-85
2024/02/04 08:54:59;;;;;;;0.65;0.65;;;7.50;99.90;;;;;;5002876;28;20022;-83
2024/02/04 08:57:25;;;;;;;0.70;0.70;;;7.50;99.90;;;;;;4986104;28;20033;-83
2024/02/04 08:59:51;;;;;;;0.80;0.70;;;7.40;99.90;;;;;;4970467;28;20023;-84
2024/02/04 09:02:17;;;;;;;0.70;0.70;;;7.40;99.90;;;;;;4971098;28;20042;-85
2024/02/04 09:04:43;;;;;;;0.95;0.70;;;7.50;99.90;;;;;;4991469;28;20093;-83
2024/02/04 09:07:09;;;;;;;0.70;0.60;;;7.50;99.90;;;;;;4976481;28;20039;-82
2024/02/04 09:09:35;;;;;;;0.95;0.70;;;7.50;99.90;;;;;;4978649;28;20054;-82
2024/02/04 09:12:01;;;;;;;0.68;0.63;;;7.50;99.90;;;;;;4978814;28;20056;-85
2024/02/04 09:14:26;;;;;;;0.80;0.70;;;7.50;99.90;;;;;;5003089;28;20037;-85
2024/02/04 09:16:52;;;;;;;1.27;0.75;;;7.50;99.90;;;;;;4999165;28;20073;-82
2024/02/04 09:19:17;;;;;;;2.33;0.50;;;7.50;99.90;;;;;;4976647;28;20110;-85
2024/02/04 09:21:43;;;;;;;0.85;0.77;;;7.60;99.90;;;;;;4980734;28;20080;-85
2024/02/04 09:24:09;;;;;;;1.00;0.80;;;7.70;99.90;;;;;;5001375;28;20030;-83
2024/02/04 09:26:35;;;;;;;0.98;0.80;;;7.70;99.90;;;;;;4983627;28;20041;-83
2024/02/04 09:29:00;;;;;;;0.70;0.63;;;7.70;99.90;;;;;;4978322;28;20037;-84
2024/02/04 09:31:26;;;;;;;0.75;0.70;;;7.70;99.90;;;;;;4995827;28;20105;-82
2024/02/04 09:33:51;;;;;;;0.88;0.70;;;7.80;99.90;;;;;;4977914;28;20026;-84
2024/02/04 09:36:17;;;;;;;1.77;0.77;;;7.80;99.90;;;;;;4998893;28;20098;-84
2024/02/04 09:38:43;;;;;;;1.10;0.70;;;7.70;99.90;;;;;;4978295;28;20022;-83
2024/02/04 09:41:09;;;;;;;0.95;0.63;;;7.70;99.90;;;;;;4978127;28;20534;-84
2024/02/04 09:43:36;;;;;;;1.20;0.80;;;7.80;99.90;;;;;;4995968;28;20053;-83
2024/02/04 09:46:02;;;;;;;1.08;0.60;;;7.70;99.90;;;;;;4996235;28;20026;-83
2024/02/04 09:48:33;;;;;;;2.60;0.70;;;7.80;99.90;;;;;;4995899;28;20072;-86
2024/02/04 09:50:59;;;;;;;1.20;0.55;;;7.80;99.90;;;;;;4979090;28;20031;-84
2024/02/04 09:53:35;;;;;;;0.70;0.52;;;7.70;99.90;;;;;;4978204;28;20114;-84
2024/02/04 09:56:03;;;;;;;0.57;0.50;;;7.80;99.90;;;;;;4974471;28;20038;-88
2024/02/04 09:58:28;;;;;;;0.60;0.55;;;7.80;99.90;;;;;;4977104;28;20068;-88
2024/02/04 10:00:54;;;;;;;0.70;0.50;;;7.80;99.90;;;;;;4973981;28;20467;-80
2024/02/04 10:03:21;;;;;;;1.10;0.60;;;7.80;99.90;;;;;;4976934;28;20028;-82
2024/02/04 10:05:47;;;;;;;1.00;0.60;;;7.80;99.90;;;;;;4973422;28;20073;-80
2024/02/04 10:08:13;;;;;;;2.45;0.50;;;7.90;99.90;;;;;;4975717;28;20023;-80
2024/02/04 10:10:39;;;;;;;1.02;0.60;;;7.90;99.90;;;;;;4993332;28;20057;-80
2024/02/04 10:13:07;;;;;;;0.60;0.57;;;7.90;99.90;;;;;;4993702;28;20113;-82
2024/02/04 10:15:33;;;;;;;1.63;0.55;;;7.90;99.90;;;;;;4977314;28;20038;-85
2024/02/04 10:17:59;;;;;;;0.77;0.73;;;7.90;99.90;;;;;;4993876;28;20022;-83
2024/02/04 10:20:24;;;;;;;1.85;0.52;;;8.00;99.90;;;;;;4977106;28;20022;-83
2024/02/04 10:22:50;;;;;;;0.50;0.45;;;8.00;99.90;;;;;;4977205;28;20028;-83
2024/02/04 10:25:16;;;;;;;0.68;0.68;;;8.00;99.90;;;;;;4976602;28;20025;-82
2024/02/04 10:27:42;;;;;;;1.48;0.65;;;8.00;99.90;;;;;;4995033;28;20483;-83
2024/02/04 10:30:08;;;;;;;1.05;0.60;;;8.10;99.90;;;;;;4976477;28;20023;-85
2024/02/04 10:32:34;;;;;;;0.70;0.50;;;8.10;99.90;;;;;;4977107;28;20019;-84
2024/02/04 10:35:01;;;;;;;0.65;0.50;;;8.10;99.90;;;;;;4976627;28;20064;-84
2024/02/04 10:37:27;;;;;;;0.60;0.60;;;8.10;99.90;;;;;;4995601;28;20030;-83
2024/02/04 10:39:52;;;;;;;2.45;0.60;;;8.10;99.90;;;;;;4991167;28;20077;-83
2024/02/04 10:42:25;;;;;;;1.13;0.70;;;8.20;99.90;;;;;;4976762;28;20364;-87
2024/02/04 10:44:53;;;;;;;1.10;0.60;;;8.20;99.90;;;;;;4976525;28;20027;-87
2024/02/04 10:47:23;;;;;;;3.60;0.63;;;8.20;99.90;;;;;;4976663;28;20121;-87
2024/02/04 10:49:55;;;;;;;0.68;0.40;;;8.30;99.90;;;;;;4992495;28;20441;-88
2024/02/04 10:52:23;;;;;;;0.98;0.60;;;8.30;99.90;;;;;;4993426;28;20042;-83
2024/02/04 10:54:50;;;;;;;0.50;0.50;;;8.40;99.90;;;;;;4976947;28;20491;-85
2024/02/04 10:57:21;;;;;;;1.67;0.57;;;8.40;99.90;;;;;;4994110;28;20037;-85
2024/02/04 10:59:47;;;;;;;1.30;0.65;;;8.50;99.90;;;;;;4976817;28;20025;-81
2024/02/04 11:02:18;;;;;;;1.25;0.60;;;8.50;99.90;;;;;;4976272;28;20093;-85
2024/02/04 11:04:45;;;;;;;0.95;0.50;;;8.60;99.90;;;;;;4979772;28;20109;-80
2024/02/04 11:07:13;;;;;;;0.50;0.40;;;8.60;99.90;;;;;;4992492;28;20038;-86
2024/02/04 11:09:39;;;;;;;2.30;0.43;;;8.70;99.90;;;;;;4992515;28;20073;-86
2024/02/04 11:12:13;;;;;;;0.88;0.85;;;8.70;99.90;;;;;;4991687;28;20030;-81
2024/02/04 11:14:42;;;;;;;0.47;0.38;;;8.70;99.90;;;;;;4980327;28;20022;-83
2024/02/04 11:17:29;;;;;;;0.43;0.43;;;8.80;99.90;;;;;;4992156;28;20526;-85
2024/02/04 11:20:30;;;;;;;0.45;0.43;;;8.90;99.90;;;;;;4983704;28;20150;-84
2024/02/04 11:23:16;;;;;;;0.70;0.40;;;8.80;99.90;;;;;;4946416;28;20468;-82
2024/02/04 11:25:47;;;;;;;1.33;0.80;;;8.90;99.90;;;;;;4952705;28;20192;-83
2024/02/04 11:28:15;;;;;;;0.82;0.50;;;8.90;99.90;;;;;;4975830;28;20022;-85
2024/02/04 11:30:42;;;;;;;1.42;0.38;;;8.90;99.90;;;;;;4978404;28;20026;-86
2024/02/04 11:33:11;;;;;;;0.70;0.30;;;8.90;99.90;;;;;;4993733;28;20025;-84
2024/02/04 11:35:37;;;;;;;0.40;0.40;;;9.00;99.90;;;;;;4995150;28;20138;-86
2024/02/04 11:38:04;;;;;;;1.88;0.50;;;9.00;99.90;;;;;;4992963;28;20058;-89
2024/02/04 11:40:37;;;;;;;0.47;0.43;;;9.00;99.90;;;;;;4995795;28;20216;-80
2024/02/04 11:43:12;;;;;;;0.70;0.45;;;9.10;99.90;;;;;;4996830;28;20033;-86
2024/02/04 11:45:39;;;;;;;1.58;0.45;;;9.10;99.90;;;;;;4979639;28;20037;-85
2024/02/04 11:48:07;;;;;;;0.85;0.40;;;9.10;99.90;;;;;;4996423;28;20034;-84
2024/02/04 11:50:34;;;;;;;0.93;0.50;;;9.20;99.90;;;;;;4994739;28;20023;-86
2024/02/04 11:53:13;;;;;;;0.70;0.40;;;9.20;99.90;;;;;;4969455;28;20088;-86
2024/02/04 11:55:41;;;;;;;0.88;0.55;;;9.30;99.90;;;;;;4959494;28;20118;-80
2024/02/04 11:58:07;;;;;;;0.60;0.30;;;9.30;99.90;;;;;;4992518;28;20026;-81
2024/02/04 12:00:34;;;;;;;0.50;0.40;;;9.30;99.90;;;;;;4994022;28;20022;-80
2024/02/04 12:03:03;;;;;;;0.40;0.40;;;9.40;99.90;;;;;;4975900;28;20126;-78
2024/02/04 12:05:33;;;;;;;0.60;0.50;;;9.40;99.90;;;;;;4991127;28;20085;-80
2024/02/04 12:08:04;;;;;;;1.38;0.43;;;9.40;99.90;;;;;;4992691;28;20034;-82
2024/02/04 12:10:31;;;;;;;0.97;0.40;;;9.40;99.90;;;;;;4974507;28;20026;-79
2024/02/04 12:12:59;;;;;;;1.40;0.70;;;9.40;99.90;;;;;;4986392;28;20057;-80
2024/02/04 12:15:25;;;;;;;0.60;0.30;;;9.40;99.90;;;;;;4984948;28;20022;-81
2024/02/04 12:17:51;;;;;;;1.67;0.65;;;9.40;99.90;;;;;;4990457;28;20058;-80
2024/02/04 12:20:16;;;;;;;1.27;0.30;;;9.50;99.90;;;;;;4997166;28;20076;-80
2024/02/04 12:22:42;;;;;;;0.93;0.40;;;9.50;99.90;;;;;;4984381;28;20046;-79
2024/02/04 12:25:08;;;;;;;2.05;0.47;;;9.50;99.90;;;;;;4982735;28;20034;-82
2024/02/04 12:27:34;;;;;;;0.80;0.40;;;9.50;99.90;;;;;;4992395;28;20062;-80
2024/02/04 12:30:00;;;;;;;0.50;0.40;;;9.50;99.90;;;;;;4991720;28;20415;-83
2024/02/04 12:32:26;;;;;;;1.42;0.40;;;9.50;99.90;;;;;;4992751;28;20504;-81
2024/02/04 12:34:54;;;;;;;2.03;0.60;;;9.50;99.90;;;;;;4992567;28;20058;-82
2024/02/04 12:37:20;;;;;;;1.50;0.68;;;9.50;99.90;;;;;;4994735;28;20045;-81
2024/02/04 12:39:46;;;;;;;0.38;0.38;;;9.50;99.90;;;;;;4984600;28;20026;-80
2024/02/04 12:42:19;;;;;;;0.82;0.30;;;9.50;99.90;;;;;;4994175;28;20033;-80
2024/02/04 12:44:49;;;;;;;1.20;0.70;;;9.50;99.90;;;;;;4987963;28;20030;-81
2024/02/04 12:47:19;;;;;;;0.52;0.40;;;9.50;99.90;;;;;;4986622;28;20100;-83
2024/02/04 12:49:45;;;;;;;0.55;0.40;;;9.50;99.90;;;;;;4979113;28;20387;-83
2024/02/04 12:52:11;;;;;;;1.02;0.88;;;9.50;99.90;;;;;;4978662;28;20114;-83
2024/02/04 12:54:44;;;;;;;0.82;0.40;;;9.50;99.90;;;;;;4995441;28;20062;-83